Time;durP1;ratioP1;P1;durP2;ratioP2;P2;SDS_P1;SDS_P2;PMS_P1;PMS_P2;Temp;Humidity;BMP_temperature;BMP_pressure;BME280_temperature;BME280_humidity;BME280_pressure;Samples;Min_cycle;Max_cycle;Signal;HPM_P1;HPM_P2
2023/10/17 00:00:28;;;;;;;14.20;12.40;;;;;;;0.83;92.73;99958.79;435224;1258;139438;-62
2023/10/17 00:10:41;;;;;;;16.40;10.70;;;;;;;0.65;92.93;99962.02;435409;1258;138700;-60
2023/10/17 00:20:50;;;;;;;12.20;9.90;;;;;;;0.45;93.08;99959.59;435671;1258;139565;-60
2023/10/17 00:30:57;;;;;;;13.20;9.30;;;;;;;0.26;93.23;99956.96;435662;1254;139219;-60
2023/10/17 00:41:03;;;;;;;14.70;9.80;;;;;;;0.09;93.41;99957.05;435762;1256;138953;-61
2023/10/17 00:51:09;;;;;;;15.60;11.00;;;;;;;-0.05;93.77;99957.41;435840;1256;138715;-60
2023/10/17 01:01:16;;;;;;;15.70;10.10;;;;;;;-0.22;94.03;99961.45;435950;1257;138910;-61
2023/10/17 01:11:21;;;;;;;;;;;;;;;-0.37;94.27;99965.25;435927;1257;139618;-61
2023/10/17 01:21:27;;;;;;;12.60;10.40;;;;;;;-0.52;94.29;99961.83;435902;1258;125047;-61
2023/10/17 01:31:38;;;;;;;17.20;11.30;;;;;;;-0.66;94.35;99960.96;435541;1256;139273;-61
2023/10/17 01:41:48;;;;;;;19.10;12.90;;;;;;;-0.77;94.58;99964.87;435491;1258;138971;-61
2023/10/17 01:51:57;;;;;;;14.80;11.70;;;;;;;-0.85;95.02;99962.73;435560;1254;139106;-60
2023/10/17 02:02:04;;;;;;;16.50;10.90;;;;;;;-1.00;95.23;99968.23;436538;1256;139056;-61
2023/10/17 02:12:10;;;;;;;18.90;12.00;;;;;;;-1.11;95.04;99970.05;435728;1256;139036;-60
2023/10/17 02:22:17;;;;;;;23.50;14.40;;;;;;;-1.24;95.31;99980.31;435618;1254;140217;-61
2023/10/17 02:32:23;;;;;;;18.70;12.60;;;;;;;-1.37;95.53;99985.73;435911;1256;138991;-61
2023/10/17 02:42:28;;;;;;;;;;;;;;;-1.49;95.43;99988.58;435752;1256;139131;-61
2023/10/17 02:52:36;;;;;;;25.20;18.40;;;;;;;-1.58;95.99;99989.34;435444;1256;125686;-61
2023/10/17 03:02:43;;;;;;;31.20;19.80;;;;;;;-1.62;96.16;99995.39;435328;1258;138840;-61
2023/10/17 03:12:54;;;;;;;27.50;19.40;;;;;;;-1.71;96.08;100002.15;435311;1256;139373;-60
2023/10/17 03:23:00;;;;;;;34.60;21.60;;;;;;;-1.80;96.17;100009.07;435451;1258;139149;-61
2023/10/17 03:33:08;;;;;;;32.80;23.60;;;;;;;-1.89;96.19;100011.70;435272;1256;139198;-60
2023/10/17 03:43:15;;;;;;;27.30;21.20;;;;;;;-1.99;96.35;100013.14;435442;1257;139353;-61
2023/10/17 03:53:25;;;;;;;;;;;;;;;-2.03;96.73;100020.87;435232;1258;139034;-61
2023/10/17 04:03:31;;;;;;;22.50;18.10;;;;;;;-2.09;96.93;100019.02;435818;1258;125494;-61
2023/10/17 04:13:37;;;;;;;;;;;;;;;-2.15;97.16;100018.19;435196;1255;140018;-61
2023/10/17 04:23:44;;;;;;;22.50;18.60;;;;;;;-2.19;97.42;100011.01;435151;1258;125765;-60
2023/10/17 04:33:56;;;;;;;24.10;17.80;;;;;;;-2.18;97.73;100009.29;435220;1257;139260;-61
2023/10/17 04:44:04;;;;;;;33.50;21.60;;;;;;;-2.11;98.26;100014.23;435284;1257;139567;-61
2023/10/17 04:54:22;;;;;;;39.20;22.10;;;;;;;-2.02;98.03;100014.70;435314;1258;139234;-60
2023/10/17 05:04:35;;;;;;;34.50;21.30;;;;;;;-1.88;98.77;100020.62;436039;1257;138985;-63
2023/10/17 06:17:21;;;;;;;26.30;18.50;;;;;;;1.45;100.00;100070.59;435212;1254;139272;-60
2023/10/17 06:37:52;;;;;;;20.20;15.00;;;;;;;3.15;98.70;100081.77;435674;1257;141061;-60
2023/10/17 06:47:59;;;;;;;20.30;15.60;;;;;;;3.63;96.70;100094.71;435145;1254;139568;-60
2023/10/17 06:58:10;;;;;;;19.90;15.10;;;;;;;3.73;95.95;100103.98;435138;1260;252295;-60
2023/10/17 07:08:16;;;;;;;24.90;15.40;;;;;;;3.79;95.08;100104.50;435366;1258;138951;-60
2023/10/17 07:18:44;;;;;;;18.20;15.00;;;;;;;3.87;94.49;100107.21;435276;1254;139474;-63
2023/10/17 07:28:51;;;;;;;22.30;16.20;;;;;;;4.03;94.15;100107.10;435496;1254;139548;-71
2023/10/17 07:38:57;;;;;;;31.90;20.30;;;;;;;4.14;94.03;100106.80;435566;1257;139644;-72
2023/10/17 07:49:04;;;;;;;32.20;20.40;;;;;;;4.45;94.42;100115.95;435234;1254;139847;-65
2023/10/17 07:59:15;;;;;;;27.20;20.40;;;;;;;5.08;95.01;100115.74;435393;1254;139157;-64
2023/10/17 08:09:25;;;;;;;29.90;21.10;;;;;;;5.74;94.26;100120.81;435516;1257;138757;-66
2023/10/17 08:30:14;;;;;;;26.90;21.60;;;;;;;6.98;93.08;100137.90;435591;1257;139430;-72
2023/10/17 08:40:39;;;;;;;30.30;19.80;;;;;;;7.86;92.08;100135.13;435284;1254;139243;-65
2023/10/17 08:50:45;;;;;;;25.10;19.00;;;;;;;8.76;90.42;100134.40;435379;1254;140224;-64
2023/10/17 09:00:56;;;;;;;24.50;18.90;;;;;;;9.78;89.52;100134.44;435559;1257;139600;-67
2023/10/17 09:11:08;;;;;;;20.00;17.30;;;;;;;10.29;87.50;100137.37;438234;1254;139873;-67
2023/10/17 09:21:14;;;;;;;18.50;15.30;;;;;;;10.35;85.78;100145.61;435443;1254;139300;-74
2023/10/17 09:31:20;;;;;;;19.10;14.90;;;;;;;10.06;84.58;100144.34;437318;1254;139214;-66
2023/10/17 09:41:29;;;;;;;11.30;10.10;;;;;;;9.86;84.48;100140.33;435250;1257;139511;-72
2023/10/17 09:51:36;;;;;;;13.60;10.20;;;;;;;9.75;84.53;100132.86;436771;1254;139466;-72
2023/10/17 10:01:45;;;;;;;12.60;10.90;;;;;;;9.46;84.58;100129.45;435363;1254;139266;-73
2023/10/17 10:12:02;;;;;;;11.70;9.70;;;;;;;9.28;84.52;100121.23;435159;1254;139169;-73
2023/10/17 10:22:10;;;;;;;11.20;9.60;;;;;;;8.90;84.33;100109.67;435618;1257;139231;-69
2023/10/17 10:32:34;;;;;;;11.80;8.90;;;;;;;8.56;84.57;100097.65;435295;1254;139260;-72
2023/10/17 10:42:48;;;;;;;11.00;8.50;;;;;;;8.42;84.93;100091.30;437939;1254;138998;-77
2023/10/17 10:52:56;;;;;;;9.00;7.50;;;;;;;8.38;84.60;100073.32;438762;1254;138971;-76
2023/10/17 11:03:02;;;;;;;11.10;6.90;;;;;;;8.47;84.01;100063.34;438574;1257;138669;-73
2023/10/17 11:13:08;;;;;;;6.90;5.30;;;;;;;8.47;83.07;100050.56;436380;1255;139981;-74
2023/10/17 11:23:15;;;;;;;7.20;3.00;;;;;;;8.47;82.76;100028.60;437866;1254;140472;-72
2023/10/17 11:33:29;;;;;;;3.30;2.20;;;;;;;8.62;82.10;100022.85;436984;1254;138894;-67
2023/10/17 11:43:42;;;;;;;4.40;1.90;;;;;;;8.75;80.96;100008.77;435618;1255;139034;-73
2023/10/17 11:54:08;;;;;;;6.10;3.50;;;;;;;8.79;80.53;100006.46;436188;1254;138859;-69
2023/10/17 12:04:35;;;;;;;7.60;4.80;;;;;;;8.81;79.97;100001.31;435398;1254;139141;-66
2023/10/17 12:14:41;;;;;;;;;;;;;;;8.81;79.82;99991.35;435775;1254;139091;-66
2023/10/17 12:24:47;;;;;;;5.20;4.00;;;;;;;8.95;80.04;99988.06;435899;1254;125025;-65
2023/10/17 12:34:55;;;;;;;3.70;2.10;;;;;;;9.19;80.05;99979.66;435194;1255;138586;-64
2023/10/17 12:45:02;;;;;;;4.50;2.00;;;;;;;9.36;78.90;99971.78;435530;1254;139421;-63
2023/10/17 12:55:11;;;;;;;2.40;1.50;;;;;;;9.50;78.40;99964.95;435359;1254;139311;-63
2023/10/17 13:05:20;;;;;;;3.70;1.40;;;;;;;9.61;77.71;99951.60;435793;1257;140821;-63
2023/10/17 13:15:26;;;;;;;5.70;1.60;;;;;;;9.85;76.93;99941.77;435233;1257;138617;-62
2023/10/17 13:25:38;;;;;;;3.40;2.30;;;;;;;9.98;76.60;99928.98;435360;1254;138059;-64
2023/10/17 13:35:44;;;;;;;5.90;1.90;;;;;;;10.20;76.12;99917.41;436157;1257;138815;-64
2023/10/17 13:45:50;;;;;;;3.60;1.30;;;;;;;10.07;74.92;99916.20;435244;1257;138047;-64
2023/10/17 13:55:56;;;;;;;3.10;1.20;;;;;;;9.93;74.50;99914.01;435177;1257;138537;-63
2023/10/17 14:06:06;;;;;;;3.40;1.60;;;;;;;9.69;74.23;99914.82;435181;1254;138064;-63
2023/10/17 14:16:12;;;;;;;4.90;1.50;;;;;;;9.33;74.11;99910.83;435379;1257;137946;-71
2023/10/17 14:26:19;;;;;;;3.80;1.70;;;;;;;8.94;74.53;99911.08;435406;1256;138330;-65
2023/10/17 14:36:26;;;;;;;2.80;1.60;;;;;;;8.74;75.33;99909.16;435679;1254;137773;-69
2023/10/17 14:46:32;;;;;;;3.30;2.10;;;;;;;8.65;75.70;99901.43;435331;1256;138120;-68
2023/10/17 14:56:38;;;;;;;5.30;2.40;;;;;;;8.51;76.05;99890.23;435237;1254;138509;-67
2023/10/17 15:06:44;;;;;;;5.20;2.80;;;;;;;8.35;76.07;99886.47;435376;1256;138679;-68
2023/10/17 15:16:51;;;;;;;10.30;3.50;;;;;;;7.94;76.55;99880.62;435293;1254;138465;-68
2023/10/17 15:26:58;;;;;;;13.30;7.30;;;;;;;7.44;77.49;99875.98;435606;1254;139493;-68
2023/10/17 15:37:06;;;;;;;10.30;4.40;;;;;;;6.93;78.41;99866.61;435555;1254;139158;-68
2023/10/17 15:47:12;;;;;;;9.20;5.40;;;;;;;6.44;79.31;99866.11;435602;1254;139333;-68
2023/10/17 15:57:18;;;;;;;14.90;8.50;;;;;;;5.96;80.33;99861.64;435774;1254;138711;-68
2023/10/17 16:07:24;;;;;;;19.10;10.20;;;;;;;5.50;81.27;99868.98;435665;1254;138599;-69
2023/10/17 16:17:31;;;;;;;25.70;10.80;;;;;;;5.05;82.29;99879.49;435297;1254;140066;-70
2023/10/17 16:27:38;;;;;;;26.90;14.50;;;;;;;4.64;83.07;99882.83;435497;1254;138886;-69
2023/10/17 16:37:44;;;;;;;31.10;14.90;;;;;;;4.25;83.74;99911.85;435801;1254;139073;-70
2023/10/17 16:47:51;;;;;;;25.50;18.70;;;;;;;3.96;85.06;99911.05;435371;1257;139661;-69
2023/10/17 16:57:57;;;;;;;35.90;22.20;;;;;;;3.70;85.25;99905.27;435854;1255;138903;-70
2023/10/17 17:08:03;;;;;;;32.10;22.00;;;;;;;3.55;86.19;99900.86;435235;1254;139767;-69
2023/10/17 17:18:10;;;;;;;34.20;20.30;;;;;;;3.57;87.19;99905.13;435675;1254;138814;-70
2023/10/17 17:28:36;;;;;;;39.80;25.40;;;;;;;3.79;88.34;99904.31;435476;1257;138664;-70
2023/10/17 17:38:43;;;;;;;54.60;34.80;;;;;;;3.90;88.34;99906.20;435664;1256;139335;-69
2023/10/17 17:48:49;;;;;;;161.70;93.50;;;;;;;3.82;88.47;99896.59;435381;1254;138652;-70
2023/10/17 17:58:58;;;;;;;120.60;71.60;;;;;;;3.67;88.82;99903.45;435681;1256;138856;-69
2023/10/17 18:09:05;;;;;;;122.70;75.40;;;;;;;3.61;89.48;99903.29;435710;1257;140724;-70
2023/10/17 18:19:11;;;;;;;113.30;76.20;;;;;;;3.68;89.97;99901.52;436361;1257;139029;-69
2023/10/17 18:29:20;;;;;;;117.00;79.20;;;;;;;3.77;90.47;99892.23;436284;1256;138964;-70
2023/10/17 18:39:26;;;;;;;127.90;82.60;;;;;;;3.87;90.72;99882.41;436443;1257;138869;-71
2023/10/17 18:49:33;;;;;;;144.60;96.30;;;;;;;3.93;91.09;99881.88;433846;1257;3206486;-70
2023/10/17 18:59:42;;;;;;;148.60;104.20;;;;;;;4.00;91.58;99885.48;435628;1258;139370;-69
2023/10/17 19:09:48;;;;;;;133.40;100.10;;;;;;;4.07;91.77;99875.02;435777;1256;139723;-68
2023/10/17 19:19:54;;;;;;;129.00;98.70;;;;;;;4.06;92.03;99877.83;435546;1257;139741;-69
2023/10/17 19:30:00;;;;;;;135.20;100.20;;;;;;;4.06;92.56;99872.96;435069;1256;139383;-67
2023/10/17 19:40:09;;;;;;;145.10;104.00;;;;;;;4.04;92.65;99862.09;435298;1256;139360;-67
2023/10/17 19:50:15;;;;;;;146.20;111.00;;;;;;;3.88;92.44;99864.88;435322;1258;140067;-67
2023/10/17 20:00:23;;;;;;;141.20;107.70;;;;;;;3.57;92.41;99851.30;435190;1257;140081;-67
2023/10/17 20:10:29;;;;;;;158.40;110.10;;;;;;;3.14;92.50;99847.55;435315;1258;139499;-66
2023/10/17 20:20:37;;;;;;;143.00;110.80;;;;;;;2.75;92.36;99843.13;435374;1257;139108;-66
2023/10/17 20:30:43;;;;;;;143.40;107.50;;;;;;;2.42;92.82;99837.44;435158;1256;139793;-68
2023/10/17 20:40:49;;;;;;;155.80;116.40;;;;;;;2.18;93.21;99837.16;435274;1258;139220;-67
2023/10/17 20:51:02;;;;;;;139.10;111.00;;;;;;;2.12;93.90;99842.68;435507;1258;139552;-67
2023/10/17 21:01:08;;;;;;;150.30;119.80;;;;;;;2.15;94.26;99835.70;435688;1258;139739;-67
2023/10/17 21:11:19;;;;;;;166.00;121.20;;;;;;;2.15;94.47;99834.83;435082;1257;139454;-67
2023/10/17 21:21:25;;;;;;;172.60;132.10;;;;;;;2.17;95.27;99839.80;435177;1256;139192;-67
2023/10/17 21:31:31;;;;;;;187.90;137.10;;;;;;;2.22;95.59;99811.14;435306;1256;139374;-68
2023/10/17 21:41:38;;;;;;;162.00;130.30;;;;;;;2.07;95.47;99807.58;435277;1257;140001;-68
2023/10/17 21:51:44;;;;;;;165.70;128.00;;;;;;;1.81;95.16;99799.59;435297;1258;139142;-66
2023/10/17 22:01:54;;;;;;;161.00;125.30;;;;;;;1.56;95.39;99788.27;435415;1258;140028;-67
2023/10/17 22:12:00;;;;;;;165.50;124.20;;;;;;;1.25;95.27;99785.69;436070;1254;139547;-67
2023/10/17 22:22:06;;;;;;;142.50;114.20;;;;;;;1.09;95.97;99778.47;435381;1256;139265;-66
2023/10/17 22:32:12;;;;;;;151.50;115.10;;;;;;;0.86;95.89;99781.36;435262;1257;139345;-67
2023/10/17 22:42:18;;;;;;;131.80;103.10;;;;;;;0.60;95.70;99784.30;435183;1258;139234;-66
2023/10/17 22:52:24;;;;;;;133.50;100.30;;;;;;;0.37;95.83;99772.50;435349;1258;139194;-65
2023/10/17 23:02:30;;;;;;;131.90;100.40;;;;;;;0.14;95.66;99765.00;435265;1254;139564;-66
2023/10/17 23:12:37;;;;;;;127.80;99.40;;;;;;;-0.05;95.97;99769.13;435343;1257;139542;-65
2023/10/17 23:22:44;;;;;;;115.40;91.60;;;;;;;-0.27;95.76;99774.84;435173;1258;139235;-65
2023/10/17 23:32:50;;;;;;;125.40;97.90;;;;;;;-0.47;95.95;99772.75;435267;1254;139624;-64
2023/10/17 23:42:56;;;;;;;128.40;94.40;;;;;;;-0.67;95.90;99772.18;435560;1257;139372;-65
2023/10/17 23:53:06;;;;;;;111.30;84.70;;;;;;;-0.83;96.23;99775.85;435391;1256;139686;-64
